createdAt,value
2024-01-25T00:02:52.985Z,11.25
2024-01-25T00:07:50.904Z,15.80
2024-01-25T00:12:47.939Z,16.00
2024-01-25T00:17:45.822Z,13.32
2024-01-25T00:22:43.136Z,34.10
2024-01-25T00:27:39.972Z,12.05
2024-01-25T00:32:36.843Z,16.25
2024-01-25T00:37:34.013Z,20.27
2024-01-25T00:42:32.149Z,16.90
2024-01-25T00:47:29.440Z,17.50
2024-01-25T00:52:26.618Z,18.65
2024-01-25T00:57:24.014Z,20.77
2024-01-25T01:02:23.020Z,18.15
2024-01-25T01:07:20.622Z,23.67
2024-01-25T01:12:18.047Z,14.13
2024-01-25T01:17:16.809Z,13.02
2024-01-25T01:22:13.663Z,9.35
2024-01-25T01:27:10.661Z,14.05
2024-01-25T01:32:07.547Z,18.20
2024-01-25T01:37:04.459Z,20.85
2024-01-25T01:42:01.277Z,11.32
2024-01-25T01:46:58.096Z,13.70
2024-01-25T01:51:55.352Z,18.15
2024-01-25T01:56:52.929Z,18.80
2024-01-25T02:01:50.042Z,14.95
2024-01-25T02:06:47.722Z,15.13
2024-01-25T02:11:44.572Z,13.57
2024-01-25T02:16:42.638Z,15.82
2024-01-25T02:21:39.568Z,10.45
2024-01-25T02:26:38.060Z,10.48
2024-01-25T02:31:35.032Z,13.32
2024-01-25T02:36:31.807Z,18.83
2024-01-25T02:41:31.242Z,14.05
2024-01-25T02:46:28.152Z,15.60
2024-01-25T02:51:25.075Z,19.35
2024-01-25T02:56:21.900Z,17.50
2024-01-25T03:01:18.969Z,15.70
2024-01-25T03:06:15.981Z,14.38
2024-01-25T03:11:12.824Z,13.13
2024-01-25T03:16:09.785Z,18.67
2024-01-25T03:21:06.648Z,17.50
2024-01-25T03:26:03.878Z,13.10
2024-01-25T03:31:03.681Z,17.95
2024-01-25T03:36:04.572Z,22.05
2024-01-25T03:41:01.400Z,16.40
2024-01-25T03:45:58.238Z,12.70
2024-01-25T03:50:57.665Z,15.30
2024-01-25T03:55:54.414Z,11.75
2024-01-25T04:00:51.267Z,13.52
2024-01-25T04:05:48.228Z,12.18
2024-01-25T04:10:45.080Z,14.65
2024-01-25T04:15:41.875Z,10.32
2024-01-25T04:20:38.808Z,10.77
2024-01-25T04:25:35.767Z,17.27
2024-01-25T04:30:34.209Z,25.65
2024-01-25T04:35:33.248Z,17.50
2024-01-25T04:40:30.388Z,16.17
2024-01-25T04:45:27.246Z,19.92
2024-01-25T04:50:24.198Z,20.10
2024-01-25T04:55:21.534Z,11.73
2024-01-25T05:00:18.743Z,11.20
2024-01-25T05:05:16.409Z,13.60
2024-01-25T05:10:13.453Z,16.65
2024-01-25T05:15:12.695Z,13.85
2024-01-25T05:20:10.961Z,22.55
2024-01-25T05:25:09.545Z,11.73
2024-01-25T05:30:07.653Z,20.75
2024-01-25T05:35:05.268Z,17.88
2024-01-25T05:40:02.318Z,19.95
2024-01-25T05:44:59.624Z,24.70
2024-01-25T05:49:56.624Z,18.88
2024-01-25T05:54:53.508Z,27.30
2024-01-25T05:59:51.444Z,22.42
2024-01-25T06:04:50.589Z,21.98
2024-01-25T06:09:47.418Z,19.95
2024-01-25T06:14:44.334Z,12.43
2024-01-25T06:19:41.544Z,19.55
2024-01-25T06:24:39.069Z,9.40
2024-01-25T06:29:35.894Z,15.73
2024-01-25T06:34:32.748Z,16.35
2024-01-25T06:39:30.083Z,16.60
2024-01-25T06:44:29.508Z,10.30
2024-01-25T06:49:26.452Z,9.27
2024-01-25T06:54:23.573Z,16.33
2024-01-25T06:59:20.357Z,3.30
2024-01-25T07:04:17.665Z,6.32
2024-01-25T07:09:14.965Z,4.82
2024-01-25T07:14:11.725Z,12.18
2024-01-25T07:19:08.694Z,3.42
2024-01-25T07:24:06.109Z,6.35
2024-01-25T07:29:02.885Z,4.10
2024-01-25T07:33:59.785Z,5.30
2024-01-25T07:38:56.739Z,2.10
2024-01-25T07:43:56.584Z,3.15
2024-01-25T07:48:53.636Z,3.85
2024-01-25T07:53:50.570Z,2.50
2024-01-25T07:58:47.386Z,1.90
2024-01-25T08:03:44.240Z,1.35
2024-01-25T08:08:41.201Z,1.15
2024-01-25T08:13:38.040Z,2.55
2024-01-25T08:18:35.079Z,0.68
2024-01-25T08:23:31.955Z,0.73
2024-01-25T08:28:28.756Z,3.22
2024-01-25T08:33:26.550Z,2.85
2024-01-25T08:38:23.448Z,0.82
2024-01-25T08:43:20.286Z,1.25
2024-01-25T08:48:17.364Z,2.85
2024-01-25T08:53:15.631Z,2.92
2024-01-25T08:58:12.440Z,8.23
2024-01-25T09:03:09.258Z,3.60
2024-01-25T09:08:06.412Z,3.50
2024-01-25T09:13:03.374Z,3.63
2024-01-25T09:18:00.253Z,4.95
2024-01-25T09:22:57.164Z,7.18
2024-01-25T09:27:54.615Z,7.03
2024-01-25T09:32:52.731Z,5.15
2024-01-25T09:37:53.633Z,5.60
2024-01-25T09:42:53.963Z,11.98
2024-01-25T09:47:50.985Z,7.72
2024-01-25T09:52:57.125Z,8.57
2024-01-25T09:58:00.206Z,8.77
2024-01-25T10:02:59.563Z,8.50
2024-01-25T10:08:02.486Z,7.65
2024-01-25T10:13:00.621Z,7.28
2024-01-25T10:18:14.498Z,7.53
2024-01-25T10:23:14.686Z,11.55
2024-01-25T10:28:14.083Z,10.43
2024-01-25T10:33:11.894Z,8.60
2024-01-25T10:38:09.037Z,11.38
2024-01-25T10:43:06.001Z,7.43
2024-01-25T10:48:03.640Z,10.82
2024-01-25T10:53:02.096Z,6.75
2024-01-25T10:57:58.871Z,6.18
2024-01-25T11:02:56.682Z,7.53
2024-01-25T11:07:53.677Z,10.70
2024-01-25T11:12:58.548Z,8.20
2024-01-25T11:17:55.821Z,6.63
2024-01-25T11:23:12.355Z,10.27
2024-01-25T11:28:09.475Z,13.55
2024-01-25T11:33:08.283Z,11.90
2024-01-25T11:38:05.373Z,13.05
2024-01-25T11:43:03.497Z,5.35
2024-01-25T11:48:00.468Z,9.82
2024-01-25T11:52:57.595Z,7.88
2024-01-25T11:57:54.698Z,6.57
2024-01-25T12:02:51.641Z,6.78
2024-01-25T12:07:49.073Z,5.97
2024-01-25T12:12:46.007Z,6.38
2024-01-25T12:17:43.199Z,8.23
2024-01-25T12:22:40.389Z,4.60
2024-01-25T12:27:38.755Z,6.05
2024-01-25T12:32:36.053Z,8.95
2024-01-25T12:37:33.404Z,6.63
2024-01-25T12:42:30.521Z,6.45
2024-01-25T12:47:28.756Z,6.18
2024-01-25T12:52:26.012Z,6.85
2024-01-25T12:57:22.953Z,9.68
2024-01-25T13:02:19.924Z,7.55
2024-01-25T13:07:16.750Z,6.75
2024-01-25T13:12:13.594Z,8.48
2024-01-25T13:17:10.508Z,7.78
2024-01-25T13:22:07.374Z,4.75
2024-01-25T13:27:04.980Z,4.07
2024-01-25T13:32:01.767Z,8.15
2024-01-25T13:36:58.596Z,4.85
2024-01-25T13:41:55.390Z,6.65
2024-01-25T13:46:53.677Z,4.10
2024-01-25T13:51:50.519Z,8.20
2024-01-25T13:56:47.360Z,7.93
2024-01-25T14:01:44.186Z,8.10
2024-01-25T14:06:40.993Z,5.07
2024-01-25T14:11:38.117Z,6.00
2024-01-25T14:16:35.210Z,4.97
2024-01-25T14:21:36.589Z,5.60
2024-01-25T14:26:33.430Z,7.13
2024-01-25T14:31:30.261Z,3.25
2024-01-25T14:36:27.143Z,2.55
2024-01-25T14:41:24.036Z,3.05
2024-01-25T14:46:20.986Z,4.72
2024-01-25T14:51:17.759Z,4.10
2024-01-25T14:56:14.587Z,6.20
2024-01-25T15:01:19.711Z,4.47
2024-01-25T15:06:16.809Z,3.30
2024-01-25T15:11:13.793Z,3.30
2024-01-25T15:16:10.829Z,4.00
2024-01-25T15:21:07.730Z,2.53
2024-01-25T15:26:05.816Z,4.28
2024-01-25T15:31:03.322Z,7.55
2024-01-25T15:36:00.340Z,6.78
2024-01-25T15:40:57.221Z,4.03
2024-01-25T15:45:54.070Z,5.57
2024-01-25T15:50:51.436Z,3.70
2024-01-25T15:55:48.262Z,2.50
2024-01-25T16:00:45.119Z,2.78
2024-01-25T16:05:42.048Z,2.90
2024-01-25T16:10:39.077Z,3.53
2024-01-25T16:15:36.052Z,1.92
2024-01-25T16:20:32.897Z,1.40
2024-01-25T16:25:31.747Z,2.33
2024-01-25T16:30:28.644Z,2.25
2024-01-25T16:35:25.513Z,4.00
2024-01-25T16:40:22.258Z,1.60
2024-01-25T16:45:19.050Z,1.23
2024-01-25T16:50:16.262Z,2.53
2024-01-25T16:55:13.289Z,2.92
2024-01-25T17:00:10.622Z,4.18
2024-01-25T17:05:07.653Z,2.03
2024-01-25T17:10:05.691Z,2.22
2024-01-25T17:15:02.462Z,3.80
2024-01-25T17:20:03.539Z,2.67
2024-01-25T17:25:01.216Z,3.63
2024-01-25T17:29:58.181Z,2.50
2024-01-25T17:34:58.214Z,2.63
2024-01-25T17:39:55.216Z,2.97
2024-01-25T17:44:52.157Z,1.48
2024-01-25T17:49:51.567Z,2.45
2024-01-25T17:54:48.445Z,1.45
2024-01-25T17:59:45.215Z,1.38
2024-01-25T18:04:42.045Z,3.15
2024-01-25T18:09:39.011Z,2.47
2024-01-25T18:14:35.911Z,4.40
2024-01-25T18:19:37.283Z,3.38
2024-01-25T18:29:31.508Z,2.88
2024-01-25T18:34:28.401Z,3.03
2024-01-25T18:39:25.350Z,2.38
2024-01-25T18:44:26.013Z,4.50
2024-01-25T18:49:22.890Z,4.50
2024-01-25T18:54:21.029Z,5.13
2024-01-25T18:59:19.262Z,4.47
2024-01-25T19:04:16.677Z,5.25
2024-01-25T19:09:13.889Z,5.07
2024-01-25T19:14:10.744Z,5.40
2024-01-25T19:19:07.758Z,3.47
2024-01-25T19:24:05.414Z,3.40
2024-01-25T19:29:02.206Z,3.90
2024-01-25T19:33:59.063Z,5.97
2024-01-25T19:38:56.022Z,3.97
2024-01-25T19:43:52.929Z,4.78
2024-01-25T19:48:49.925Z,4.50
2024-01-25T19:53:47.052Z,4.60
2024-01-25T19:58:48.738Z,4.53
2024-01-25T20:08:45.171Z,4.20
2024-01-25T20:13:42.651Z,4.22
2024-01-25T20:18:39.671Z,4.78
2024-01-25T20:23:36.760Z,4.97
2024-01-25T20:28:33.639Z,5.40
2024-01-25T20:33:30.541Z,4.47
2024-01-25T20:38:27.442Z,7.18
2024-01-25T20:43:24.217Z,3.33
2024-01-25T20:48:21.141Z,9.10
2024-01-25T20:53:18.319Z,4.70
2024-01-25T20:58:15.126Z,3.80
2024-01-25T21:03:12.192Z,9.15
2024-01-25T21:08:11.147Z,4.05
2024-01-25T21:13:08.448Z,2.92
2024-01-25T21:18:06.164Z,5.15
2024-01-25T21:23:03.327Z,6.57
2024-01-25T21:28:02.105Z,5.25
2024-01-25T21:32:59.005Z,4.55
2024-01-25T21:37:56.032Z,11.43
2024-01-25T21:42:53.454Z,3.80
2024-01-25T21:47:50.348Z,3.22
2024-01-25T21:52:47.270Z,4.88
2024-01-25T21:57:51.072Z,6.53
2024-01-25T22:02:51.690Z,2.75
2024-01-25T22:07:49.902Z,5.38
2024-01-25T22:12:46.766Z,5.40
2024-01-25T22:17:43.675Z,3.50
2024-01-25T22:22:41.231Z,4.40
2024-01-25T22:27:39.181Z,5.72
2024-01-25T22:32:36.026Z,2.17
2024-01-25T22:37:32.772Z,3.53
2024-01-25T22:42:29.616Z,1.55
2024-01-25T22:47:26.468Z,3.10
2024-01-25T22:52:23.356Z,1.60
2024-01-25T22:57:21.100Z,4.15
2024-01-25T23:02:17.977Z,3.55
2024-01-25T23:07:14.814Z,3.17
2024-01-25T23:12:11.849Z,2.67
2024-01-25T23:17:09.004Z,2.80
2024-01-25T23:22:07.703Z,0.93
2024-01-25T23:27:04.887Z,2.40
2024-01-25T23:32:01.674Z,2.17
2024-01-25T23:36:58.758Z,2.75
2024-01-25T23:41:55.573Z,1.50
2024-01-25T23:46:52.406Z,2.03
2024-01-25T23:51:49.507Z,1.98
2024-01-25T23:56:46.344Z,2.10
